< < Back
Terminal Aerodrome Forecast


Current Version              Previous Versions:   1  2  3  4  5  6  7  8  9  

Terminal Aerodrome Forecast

661
FTUS42 KGSP 300854 AAA
TAFCLT
TAF AMD
KCLT 300854Z 3009/3106 17003KT P6SM BKN150 OVC250
     FM301900 16006KT P6SM VCSH OVC060
     FM310200 18005KT P6SM -SHRA OVC030
     FM310400 18005KT 6SM -SHRA BR BKN015=



Latest METAR

725
SAUS70 KWBC 301400 RRC
MTRCLT
METAR KCLT 301352Z 03003KT 10SM OVC150 25/14 A3019 RMK AO2 SLP214
T02500144


USA.gov is the U.S. government's official web portal to all federal, state and local government web resources and services.